Time;durP1;ratioP1;P1;durP2;ratioP2;P2;SDS_P1;SDS_P2;PMS_P1;PMS_P2;Temp;Humidity;BMP_temperature;BMP_pressure;BME280_temperature;BME280_humidity;BME280_pressure;Samples;Min_cycle;Max_cycle;Signal;HPM_P1;HPM_P2
2023/02/27 00:01:00;;;;;;;9.10;3.70;;;;;;;0.12;71.55;100432.72;217576;1260;139551;-66
2023/02/27 00:06:03;;;;;;;8.70;3.50;;;;;;;0.10;71.50;100439.57;218813;1261;138960;-65
2023/02/27 00:11:07;;;;;;;5.00;2.90;;;;;;;0.08;71.91;100444.36;218966;1257;139158;-66
2023/02/27 00:16:11;;;;;;;7.40;3.50;;;;;;;0.05;71.80;100448.66;217646;1263;141219;-66
2023/02/27 00:21:15;;;;;;;8.90;3.40;;;;;;;0.03;71.81;100445.33;217816;1261;138484;-67
2023/02/27 00:26:18;;;;;;;10.90;3.60;;;;;;;0.05;71.82;100445.84;218382;1264;139321;-64
2023/02/27 00:31:21;;;;;;;9.30;4.00;;;;;;;0.09;71.95;100444.08;218424;1257;140150;-66
2023/02/27 00:36:26;;;;;;;8.60;3.90;;;;;;;0.10;72.03;100453.59;217602;1258;138978;-67
2023/02/27 00:41:30;;;;;;;11.00;4.30;;;;;;;0.07;72.25;100458.16;219010;1257;139707;-66
2023/02/27 00:46:33;;;;;;;5.60;3.50;;;;;;;0.05;72.17;100450.02;218281;1260;139624;-68
2023/02/27 00:51:38;;;;;;;7.40;3.50;;;;;;;0.05;72.29;100454.42;217582;1260;139982;-65
2023/02/27 00:56:42;;;;;;;5.60;2.90;;;;;;;0.01;72.33;100455.48;218722;1258;139624;-68
2023/02/27 01:01:45;;;;;;;9.60;4.20;;;;;;;-0.02;72.62;100459.77;218691;1257;138939;-68
2023/02/27 01:06:48;;;;;;;5.10;2.70;;;;;;;-0.05;72.53;100459.41;217538;1260;139928;-69
2023/02/27 01:11:51;;;;;;;7.60;4.10;;;;;;;-0.05;72.65;100452.59;217813;1260;140017;-69
2023/02/27 01:16:56;;;;;;;8.40;3.10;;;;;;;-0.06;72.77;100453.55;220574;1257;139828;-70
2023/02/27 01:22:00;;;;;;;9.40;3.80;;;;;;;-0.08;73.00;100451.66;218540;1258;139679;-73
2023/02/27 01:27:02;;;;;;;9.00;2.80;;;;;;;-0.08;73.36;100454.95;217977;1257;139169;-72
2023/02/27 01:32:08;;;;;;;13.40;4.20;;;;;;;-0.09;73.40;100454.22;219890;1257;140143;-72
2023/02/27 01:37:12;;;;;;;6.60;2.70;;;;;;;-0.13;73.85;100452.52;218128;1260;140500;-72
2023/02/27 01:42:34;;;;;;;11.30;3.50;;;;;;;-0.17;73.80;100455.86;217713;1258;139514;-72
2023/02/27 01:47:47;;;;;;;8.10;3.70;;;;;;;-0.18;74.44;100456.44;219071;1257;140390;-72
2023/02/27 01:52:57;;;;;;;6.30;3.70;;;;;;;-0.17;74.30;100455.50;218064;1257;140126;-73
2023/02/27 01:58:04;;;;;;;9.50;4.40;;;;;;;-0.19;74.32;100462.71;217839;1257;141438;-71
2023/02/27 02:03:45;;;;;;;8.90;3.70;;;;;;;-0.20;74.54;100463.14;218076;1259;139756;-71
2023/02/27 02:08:52;;;;;;;6.70;3.50;;;;;;;-0.21;74.83;100464.79;217253;1257;161081;-68
2023/02/27 02:14:01;;;;;;;8.30;3.10;;;;;;;-0.20;75.23;100468.56;217593;1258;140161;-70
2023/02/27 02:19:22;;;;;;;3.80;3.00;;;;;;;-0.20;75.11;100471.21;217703;1260;140222;-66
2023/02/27 02:24:40;;;;;;;4.50;2.70;;;;;;;-0.23;75.42;100473.08;217645;1260;139175;-67
2023/02/27 02:30:16;;;;;;;4.90;3.90;;;;;;;-0.27;75.56;100476.56;218057;1257;140567;-65
2023/02/27 02:35:39;;;;;;;7.90;3.00;;;;;;;-0.29;75.54;100478.80;217884;1257;205988;-65
2023/02/27 02:41:10;;;;;;;6.00;3.50;;;;;;;-0.25;75.70;100483.57;218656;1256;140178;-64
2023/02/27 02:46:42;;;;;;;4.50;3.00;;;;;;;-0.19;76.06;100486.30;218235;1257;140707;-64
2023/02/27 02:51:56;;;;;;;6.20;3.00;;;;;;;-0.11;76.04;100486.00;218070;1259;140060;-65
2023/02/27 02:57:11;;;;;;;4.50;3.40;;;;;;;-0.08;76.10;100493.54;219040;1257;139197;-64
2023/02/27 03:02:20;;;;;;;4.90;3.20;;;;;;;-0.10;76.03;100503.23;219823;1256;139042;-64
2023/02/27 03:07:32;;;;;;;6.10;3.60;;;;;;;-0.13;76.40;100504.22;218080;1257;139059;-65
2023/02/27 03:12:42;;;;;;;7.40;5.80;;;;;;;-0.13;76.34;100513.79;220373;1256;139991;-64
2023/02/27 03:18:05;;;;;;;6.20;3.10;;;;;;;-0.09;76.55;100519.05;219502;1257;139762;-69
2023/02/27 03:23:24;;;;;;;6.60;4.50;;;;;;;-0.05;76.60;100522.33;218605;1257;139864;-69
2023/02/27 03:28:32;;;;;;;5.70;2.90;;;;;;;-0.03;76.56;100530.82;217790;1257;139307;-69
2023/02/27 03:33:52;;;;;;;5.00;3.40;;;;;;;-0.03;76.60;100536.11;217678;1260;140289;-68
2023/02/27 03:39:06;;;;;;;3.40;3.00;;;;;;;-0.09;76.52;100536.99;217757;1256;139262;-68
2023/02/27 03:44:25;;;;;;;5.80;3.70;;;;;;;-0.12;76.70;100541.80;218401;1257;140660;-67
2023/02/27 03:49:29;;;;;;;4.40;3.10;;;;;;;-0.13;76.79;100543.30;218074;1256;140343;-66
2023/02/27 03:54:36;;;;;;;3.20;2.90;;;;;;;-0.13;76.75;100545.62;217976;1257;140949;-66
2023/02/27 03:59:41;;;;;;;3.10;2.80;;;;;;;-0.15;76.95;100554.35;217830;1260;138827;-66
2023/02/27 04:04:45;;;;;;;5.10;3.50;;;;;;;-0.18;77.36;100560.02;217523;1260;139835;-67
2023/02/27 04:10:10;;;;;;;5.90;4.10;;;;;;;-0.22;77.34;100563.94;218492;1257;140383;-65
2023/02/27 04:15:40;;;;;;;5.50;3.40;;;;;;;-0.24;77.26;100574.30;216996;1260;823636;-64
2023/02/27 04:20:58;;;;;;;7.70;3.70;;;;;;;-0.25;77.27;100583.59;218144;1256;140693;-65
2023/02/27 04:26:16;;;;;;;7.80;4.50;;;;;;;-0.26;77.58;100588.39;217875;1257;140824;-65
2023/02/27 04:31:58;;;;;;;8.30;3.60;;;;;;;-0.24;77.80;100591.70;217946;1259;139332;-64
2023/02/27 04:37:16;;;;;;;4.20;3.20;;;;;;;-0.28;77.73;100594.33;218132;1260;138944;-65
2023/02/27 04:42:23;;;;;;;;;;;;;;;-0.39;77.35;100587.89;218048;1257;139254;-64
2023/02/27 04:47:33;;;;;;;8.50;4.90;;;;;;;-0.43;78.14;100591.91;218222;1257;125949;-63
2023/02/27 04:52:45;;;;;;;6.60;5.50;;;;;;;-0.40;78.06;100593.54;218697;1256;139640;-64
2023/02/27 04:58:15;;;;;;;5.80;4.50;;;;;;;-0.37;78.50;100599.57;217949;1257;140437;-64
2023/02/27 05:03:27;;;;;;;8.10;4.60;;;;;;;-0.36;78.33;100601.25;220250;1257;141971;-68
2023/02/27 05:08:41;;;;;;;8.60;6.10;;;;;;;-0.32;78.41;100602.66;220384;1256;141866;-68
2023/02/27 05:13:55;;;;;;;7.10;5.40;;;;;;;-0.31;78.22;100598.03;220381;1256;139967;-64
2023/02/27 05:19:00;;;;;;;6.80;5.60;;;;;;;-0.30;78.19;100601.01;220222;1256;139315;-68
2023/02/27 05:24:25;;;;;;;11.80;7.20;;;;;;;-0.28;78.14;100611.65;220087;1256;139316;-65
2023/02/27 05:29:34;;;;;;;8.10;5.20;;;;;;;-0.30;77.98;100626.34;220251;1256;140032;-65
2023/02/27 05:34:46;;;;;;;8.70;6.30;;;;;;;-0.33;77.85;100635.71;218974;1256;140330;-65
2023/02/27 05:39:51;;;;;;;7.70;6.20;;;;;;;-0.33;78.22;100634.00;219089;1256;141115;-64
2023/02/27 05:45:02;;;;;;;8.80;6.30;;;;;;;-0.38;78.09;100642.06;218190;1257;139773;-65
2023/02/27 05:50:22;;;;;;;9.70;6.50;;;;;;;-0.44;78.43;100650.70;217756;1257;142446;-67
2023/02/27 05:55:42;;;;;;;9.20;7.00;;;;;;;-0.49;78.42;100661.27;219062;1258;141570;-69
2023/02/27 06:00:55;;;;;;;9.80;7.60;;;;;;;-0.50;78.42;100665.40;217492;1260;141053;-67
2023/02/27 06:06:00;;;;;;;8.60;7.00;;;;;;;-0.53;78.98;100671.45;217345;1259;142116;-67
2023/02/27 06:11:01;;;;;;;11.30;8.80;;;;;;;-0.52;78.59;100669.90;217590;1260;140349;-66
2023/02/27 06:16:04;;;;;;;9.70;8.60;;;;;;;-0.49;79.03;100673.73;217626;1260;140010;-68
2023/02/27 06:21:07;;;;;;;13.80;8.70;;;;;;;-0.46;79.31;100670.23;217835;1259;140626;-63
2023/02/27 06:26:13;;;;;;;18.30;10.80;;;;;;;-0.42;79.21;100675.59;217561;1256;140161;-67
2023/02/27 06:31:16;;;;;;;11.80;9.30;;;;;;;-0.36;79.13;100676.86;218160;1257;140579;-68
2023/02/27 06:36:21;;;;;;;15.60;10.70;;;;;;;-0.27;79.26;100683.52;218376;1256;139930;-67
2023/02/27 06:41:25;;;;;;;16.30;11.30;;;;;;;-0.18;78.93;100683.89;217435;1257;140063;-68
2023/02/27 06:46:28;;;;;;;16.60;10.00;;;;;;;-0.11;79.13;100687.63;217715;1259;139180;-68
2023/02/27 06:51:32;;;;;;;12.10;8.50;;;;;;;-0.11;79.31;100687.65;218340;1259;141441;-67
2023/02/27 06:56:35;;;;;;;14.20;10.00;;;;;;;-0.09;79.45;100693.70;217911;1257;139065;-67
2023/02/27 07:01:38;;;;;;;14.70;8.40;;;;;;;0.01;79.06;100708.35;218205;1256;139758;-65
2023/02/27 07:06:42;;;;;;;13.80;8.80;;;;;;;0.08;79.08;100709.48;218403;1257;139562;-66
2023/02/27 07:12:06;;;;;;;11.40;7.60;;;;;;;0.10;79.26;100713.76;217869;1256;139146;-66
2023/02/27 07:17:23;;;;;;;12.40;9.50;;;;;;;0.15;79.07;100718.55;220584;1256;139313;-69
2023/02/27 07:22:31;;;;;;;12.30;10.00;;;;;;;0.24;78.69;100728.23;218598;1256;224885;-68
2023/02/27 07:27:38;;;;;;;9.80;7.70;;;;;;;0.36;78.86;100727.38;219385;1256;141455;-67
2023/02/27 07:32:41;;;;;;;13.70;10.70;;;;;;;0.48;78.78;100728.41;217913;1257;139048;-67
2023/02/27 07:37:46;;;;;;;12.70;10.00;;;;;;;0.61;79.07;100729.91;219239;1256;139625;-66
2023/02/27 07:43:04;;;;;;;13.60;8.20;;;;;;;0.68;78.24;100739.78;218031;1257;138993;-70
2023/02/27 07:48:07;;;;;;;12.90;11.10;;;;;;;0.62;78.12;100741.17;217831;1259;139971;-68
2023/02/27 07:53:12;;;;;;;9.50;7.30;;;;;;;0.61;78.05;100748.61;218252;1256;140395;-64
2023/02/27 07:58:15;;;;;;;20.40;8.90;;;;;;;0.62;78.06;100747.52;218735;1259;140263;-63
2023/02/27 08:03:19;;;;;;;11.70;9.00;;;;;;;0.71;77.98;100751.48;218341;1259;140464;-66
2023/02/27 08:08:23;;;;;;;11.10;9.00;;;;;;;0.85;77.85;100760.99;217911;1256;139245;-64
2023/02/27 08:13:27;;;;;;;11.50;6.30;;;;;;;1.10;77.98;100768.75;218570;1256;138865;-64
2023/02/27 08:18:50;;;;;;;9.10;6.00;;;;;;;1.35;77.48;100770.50;217643;1256;139382;-64
2023/02/27 08:23:53;;;;;;;9.50;6.90;;;;;;;1.59;76.88;100772.52;217687;1256;139174;-65
2023/02/27 08:28:56;;;;;;;11.60;6.90;;;;;;;1.62;76.81;100774.83;219066;1256;138891;-66
2023/02/27 08:33:58;;;;;;;19.20;9.60;;;;;;;1.55;75.47;100775.66;217875;1256;140045;-66
2023/02/27 08:39:14;;;;;;;8.70;5.30;;;;;;;1.53;75.59;100777.63;217830;1257;139470;-65
2023/02/27 08:44:18;;;;;;;9.00;6.10;;;;;;;1.33;74.67;100782.23;218033;1259;138668;-67
2023/02/27 08:49:23;;;;;;;7.20;5.00;;;;;;;1.20;74.97;100789.52;218617;1258;138676;-64
2023/02/27 08:54:27;;;;;;;5.50;5.00;;;;;;;1.36;74.78;100797.23;217471;1260;141184;-65
2023/02/27 08:59:31;;;;;;;6.70;5.00;;;;;;;1.44;74.70;100799.40;219113;1256;139169;-64
2023/02/27 09:04:34;;;;;;;10.70;5.70;;;;;;;1.66;74.73;100798.96;219994;1257;139876;-62
2023/02/27 09:09:38;;;;;;;8.00;4.40;;;;;;;1.97;74.54;100793.46;220452;1256;140022;-62
2023/02/27 09:14:41;;;;;;;6.30;4.00;;;;;;;2.26;73.84;100799.64;220395;1256;140609;-65
2023/02/27 09:19:44;;;;;;;5.00;3.00;;;;;;;2.64;73.22;100802.61;220328;1256;140484;-68
2023/02/27 09:24:46;;;;;;;3.60;2.50;;;;;;;2.87;72.16;100807.86;218509;1257;139003;-66
2023/02/27 09:29:54;;;;;;;2.80;2.30;;;;;;;2.83;70.96;100809.21;218988;1256;138896;-65
2023/02/27 09:34:57;;;;;;;2.70;2.20;;;;;;;2.72;70.12;100808.20;219998;1256;139163;-69
2023/02/27 09:40:00;;;;;;;2.50;2.20;;;;;;;2.69;69.20;100816.96;218278;1259;139256;-67
2023/02/27 09:45:06;;;;;;;4.30;2.50;;;;;;;2.65;69.16;100822.77;217529;1257;144577;-63
2023/02/27 09:50:36;;;;;;;2.30;1.80;;;;;;;2.58;68.60;100829.11;218254;1260;139583;-66
2023/02/27 09:55:41;;;;;;;8.00;1.30;;;;;;;2.37;67.00;100831.82;217870;1256;140997;-64
2023/02/27 10:01:05;;;;;;;5.70;3.30;;;;;;;2.22;66.51;100833.66;217944;1256;138806;-61
2023/02/27 10:06:29;;;;;;;3.00;2.10;;;;;;;2.17;66.60;100834.70;217740;1257;139274;-66
2023/02/27 10:11:49;;;;;;;3.10;2.60;;;;;;;2.09;66.44;100841.03;217868;1260;139408;-62
2023/02/27 10:16:52;;;;;;;3.80;2.50;;;;;;;1.98;66.60;100846.30;217717;1256;140789;-67
2023/02/27 10:21:57;;;;;;;4.60;2.00;;;;;;;1.92;66.46;100852.67;217592;1257;138831;-70
2023/02/27 10:27:04;;;;;;;3.90;1.90;;;;;;;1.82;66.19;100848.07;217708;1259;139405;-71
2023/02/27 10:32:31;;;;;;;2.80;2.10;;;;;;;2.19;67.07;100845.42;218253;1257;140028;-64
2023/02/27 10:37:39;;;;;;;2.50;2.20;;;;;;;2.69;66.82;100848.55;218353;1257;139429;-65
2023/02/27 10:42:42;;;;;;;3.10;2.20;;;;;;;2.92;66.24;100846.55;217984;1257;139716;-66
2023/02/27 10:47:45;;;;;;;2.80;1.90;;;;;;;2.94;65.37;100860.70;217598;1256;139623;-66
2023/02/27 10:52:53;;;;;;;1.60;1.50;;;;;;;2.74;64.21;100862.63;218978;1256;140446;-66
2023/02/27 10:57:57;;;;;;;2.40;2.10;;;;;;;2.48;64.02;100867.96;217548;1257;140137;-65
2023/02/27 11:03:00;;;;;;;5.80;2.40;;;;;;;2.20;63.68;100866.65;218839;1256;139508;-64
2023/02/27 11:08:12;;;;;;;4.30;2.50;;;;;;;1.99;64.14;100869.70;217928;1257;139387;-63
2023/02/27 11:13:20;;;;;;;3.90;2.90;;;;;;;1.81;63.89;100874.61;219731;1256;140028;-64
2023/02/27 11:18:29;;;;;;;3.60;2.60;;;;;;;1.69;64.36;100877.88;220382;1256;139569;-64
2023/02/27 11:23:32;;;;;;;3.50;2.10;;;;;;;1.69;64.32;100877.16;220365;1256;138912;-66
2023/02/27 11:28:34;;;;;;;5.30;3.20;;;;;;;1.79;64.53;100866.95;220330;1256;139397;-64
2023/02/27 11:33:54;;;;;;;4.00;3.20;;;;;;;1.92;64.37;100864.88;218667;1260;139300;-71
2023/02/27 11:38:57;;;;;;;3.00;1.70;;;;;;;2.07;64.05;100864.88;218091;1259;138887;-65
2023/02/27 11:44:02;;;;;;;5.00;2.70;;;;;;;2.11;64.01;100855.71;217421;1256;139458;-64
2023/02/27 11:49:30;;;;;;;7.20;4.00;;;;;;;2.07;63.80;100849.63;217539;1257;139203;-65
2023/02/27 11:54:53;;;;;;;6.50;3.70;;;;;;;2.02;63.41;100844.63;217331;1256;139782;-65
2023/02/27 12:00:18;;;;;;;4.90;3.00;;;;;;;1.94;63.94;100845.41;218193;1260;138745;-64
2023/02/27 12:05:35;;;;;;;5.30;3.70;;;;;;;1.94;63.76;100845.24;217784;1257;139041;-62
2023/02/27 12:11:04;;;;;;;6.00;3.50;;;;;;;1.98;63.21;100843.86;217941;1256;139149;-62
2023/02/27 12:16:28;;;;;;;3.20;2.90;;;;;;;2.53;64.06;100838.23;217623;1257;139408;-62
2023/02/27 12:21:41;;;;;;;3.30;2.70;;;;;;;2.61;62.81;100847.15;217712;1259;138841;-62
2023/02/27 12:26:45;;;;;;;3.50;2.90;;;;;;;2.34;61.87;100843.57;217685;1257;140524;-65
2023/02/27 12:32:12;;;;;;;4.30;2.00;;;;;;;2.21;61.87;100847.09;218249;1260;139125;-65
2023/02/27 12:37:36;;;;;;;2.80;2.40;;;;;;;2.17;61.69;100850.14;217924;1260;139014;-64
2023/02/27 12:43:10;;;;;;;2.20;2.10;;;;;;;2.08;61.54;100854.27;218991;1257;139481;-67
2023/02/27 12:48:24;;;;;;;2.90;2.40;;;;;;;1.99;61.98;100863.16;218131;1256;139077;-62
2023/02/27 12:54:12;;;;;;;5.10;3.30;;;;;;;1.91;61.60;100866.27;218664;1256;139056;-65
2023/02/27 12:59:37;;;;;;;10.20;4.90;;;;;;;1.85;62.08;100862.11;217745;1257;138829;-63
2023/02/27 13:04:58;;;;;;;5.00;2.90;;;;;;;1.89;61.95;100862.11;218833;1256;140917;-66
2023/02/27 13:10:14;;;;;;;4.80;3.00;;;;;;;1.94;62.05;100860.74;219548;1260;139402;-61
2023/02/27 13:15:30;;;;;;;3.80;3.40;;;;;;;2.21;61.96;100861.86;220280;1256;140340;-66
2023/02/27 13:20:44;;;;;;;2.70;2.40;;;;;;;2.25;60.91;100866.39;220632;1256;139879;-64
2023/02/27 13:25:50;;;;;;;4.70;4.30;;;;;;;2.13;60.15;100872.65;220312;1257;139825;-65
2023/02/27 13:31:30;;;;;;;4.00;2.70;;;;;;;2.04;60.48;100874.98;219883;1256;139130;-65
2023/02/27 13:36:51;;;;;;;11.40;4.40;;;;;;;1.97;60.27;100878.10;218451;1259;139007;-64
2023/02/27 13:41:54;;;;;;;3.70;3.00;;;;;;;1.91;60.12;100882.90;217250;1256;139494;-66
2023/02/27 13:47:29;;;;;;;5.70;3.10;;;;;;;1.84;60.12;100883.94;217626;1257;140464;-63
2023/02/27 13:52:37;;;;;;;4.90;3.20;;;;;;;1.76;60.17;100887.25;217563;1257;138871;-65
2023/02/27 13:57:40;;;;;;;7.00;5.80;;;;;;;1.70;60.81;100888.17;217177;1262;140762;-68
2023/02/27 14:02:50;;;;;;;9.00;3.80;;;;;;;1.61;60.90;100891.10;218441;1257;140029;-68
2023/02/27 14:08:24;;;;;;;5.90;3.90;;;;;;;1.54;61.14;100891.92;217770;1259;141171;-69
2023/02/27 14:13:49;;;;;;;8.10;4.20;;;;;;;1.47;60.71;100888.66;217423;1256;139029;-65
2023/02/27 14:18:57;;;;;;;6.60;4.00;;;;;;;1.40;60.95;100892.52;218356;1257;139069;-62
2023/02/27 14:24:01;;;;;;;5.20;4.20;;;;;;;1.33;61.03;100895.95;217447;1260;138698;-64
2023/02/27 14:29:04;;;;;;;3.30;3.10;;;;;;;1.26;61.27;100907.45;218300;1257;140085;-66
2023/02/27 14:34:14;;;;;;;6.80;3.60;;;;;;;1.20;61.09;100910.52;217421;1261;141757;-66
2023/02/27 14:39:39;;;;;;;6.60;4.40;;;;;;;1.15;61.35;100908.67;218960;1256;139611;-65
2023/02/27 14:44:47;;;;;;;4.80;4.30;;;;;;;1.15;61.48;100909.57;217908;1257;139216;-64
2023/02/27 14:49:51;;;;;;;7.90;4.60;;;;;;;1.13;61.47;100909.79;219622;1256;139199;-65
2023/02/27 14:55:15;;;;;;;7.50;5.30;;;;;;;1.15;61.70;100912.41;219997;1256;139636;-64
2023/02/27 15:00:38;;;;;;;4.30;3.60;;;;;;;1.15;61.61;100925.19;218893;1256;139387;-64
2023/02/27 15:05:42;;;;;;;6.70;5.50;;;;;;;1.10;61.61;100933.50;218742;1256;141266;-65
2023/02/27 15:10:46;;;;;;;4.80;4.40;;;;;;;1.08;62.03;100937.92;219379;1256;138780;-64
2023/02/27 15:16:28;;;;;;;5.70;3.30;;;;;;;1.05;61.59;100944.52;218651;1256;139490;-67
2023/02/27 15:21:39;;;;;;;4.10;3.60;;;;;;;0.97;61.67;100945.39;220449;1256;141298;-66
2023/02/27 15:26:50;;;;;;;5.70;3.40;;;;;;;0.99;61.67;100950.96;219945;1256;140366;-64
2023/02/27 15:31:56;;;;;;;4.40;2.90;;;;;;;0.97;61.91;100955.00;220305;1259;138974;-62
2023/02/27 15:37:01;;;;;;;11.40;5.30;;;;;;;0.95;61.70;100957.48;219454;1257;138713;-64
2023/02/27 15:42:07;;;;;;;10.40;6.00;;;;;;;0.97;61.94;100956.80;219255;1256;138846;-63
2023/02/27 15:47:27;;;;;;;4.60;3.30;;;;;;;0.95;62.03;100960.06;218048;1256;139096;-65
2023/02/27 15:52:39;;;;;;;4.90;3.90;;;;;;;0.93;62.23;100968.69;217685;1260;140382;-64
2023/02/27 15:57:44;;;;;;;4.60;3.20;;;;;;;0.88;62.48;100973.01;217789;1260;139264;-65
2023/02/27 16:03:07;;;;;;;9.10;7.60;;;;;;;0.84;62.06;100985.09;217488;1259;139017;-65
2023/02/27 16:08:18;;;;;;;6.60;4.80;;;;;;;0.79;62.45;100993.25;217828;1260;235878;-67
2023/02/27 16:13:25;;;;;;;6.70;4.70;;;;;;;0.77;62.08;100998.91;217861;1260;139489;-64
2023/02/27 16:18:35;;;;;;;6.70;4.90;;;;;;;0.76;62.74;101001.59;218644;1257;266011;-66
2023/02/27 16:23:42;;;;;;;5.60;4.40;;;;;;;0.77;63.21;101007.70;218039;1260;138828;-68
2023/02/27 16:29:04;;;;;;;6.60;5.00;;;;;;;0.76;63.70;101014.73;217841;1260;139055;-68
2023/02/27 16:34:26;;;;;;;6.10;3.50;;;;;;;0.72;64.19;101022.28;217971;1259;139338;-69
2023/02/27 16:39:50;;;;;;;5.90;5.10;;;;;;;0.66;64.37;101029.94;218810;1257;139149;-70
2023/02/27 16:44:57;;;;;;;7.90;4.40;;;;;;;0.62;64.71;101032.57;218141;1257;140372;-68
2023/02/27 16:50:04;;;;;;;8.00;5.20;;;;;;;0.59;65.20;101042.53;218119;1257;140323;-70
2023/02/27 16:55:10;;;;;;;14.90;7.10;;;;;;;0.54;65.11;101051.55;219097;1256;139207;-66
2023/02/27 17:00:18;;;;;;;13.30;6.00;;;;;;;0.48;65.25;101058.78;217859;1257;139443;-70
2023/02/27 17:05:33;;;;;;;11.50;5.20;;;;;;;0.45;66.19;101063.42;218618;1259;139919;-69
2023/02/27 17:10:39;;;;;;;12.10;5.30;;;;;;;0.44;66.10;101067.31;218351;1260;141181;-70
2023/02/27 17:15:47;;;;;;;6.40;5.00;;;;;;;0.44;66.28;101072.04;219593;1256;140049;-65
2023/02/27 17:20:55;;;;;;;6.20;4.80;;;;;;;0.48;66.21;101076.10;220492;1257;140182;-67
2023/02/27 17:26:00;;;;;;;9.90;5.70;;;;;;;0.49;66.61;101081.19;220284;1257;140167;-69
2023/02/27 17:31:09;;;;;;;7.30;6.40;;;;;;;0.50;66.67;101082.73;219861;1257;139688;-68
2023/02/27 17:36:14;;;;;;;10.30;6.30;;;;;;;0.48;66.51;101080.08;220252;1256;139601;-70
2023/02/27 17:41:24;;;;;;;12.70;7.10;;;;;;;0.45;66.90;101082.27;218772;1257;138864;-71
2023/02/27 17:46:35;;;;;;;8.80;5.90;;;;;;;0.43;66.98;101088.05;217428;1261;139734;-64
2023/02/27 17:51:42;;;;;;;9.30;7.00;;;;;;;0.39;67.29;101086.32;218072;1261;139095;-69
2023/02/27 17:56:52;;;;;;;13.80;7.60;;;;;;;0.32;67.43;101090.05;217960;1260;139533;-67
2023/02/27 18:02:00;;;;;;;11.90;7.90;;;;;;;0.26;67.79;101092.89;218916;1257;139426;-68
2023/02/27 18:07:06;;;;;;;9.90;6.20;;;;;;;0.16;67.34;101091.09;217809;1258;139428;-69
2023/02/27 18:12:11;;;;;;;12.10;6.80;;;;;;;0.10;67.78;101095.13;218576;1257;139516;-64
2023/02/27 18:17:17;;;;;;;13.10;7.20;;;;;;;0.11;68.50;101093.66;217647;1262;139434;-65
2023/02/27 18:22:24;;;;;;;34.80;18.60;;;;;;;0.12;67.91;101090.83;217792;1260;232182;-66
2023/02/27 18:27:30;;;;;;;40.80;20.90;;;;;;;0.13;68.07;101097.84;217192;1262;140865;-66
2023/02/27 18:32:34;;;;;;;51.00;25.50;;;;;;;0.14;68.24;101096.05;218005;1262;139550;-68
2023/02/27 18:37:39;;;;;;;51.70;23.60;;;;;;;0.13;68.41;101101.88;219162;1257;140032;-63
2023/02/27 18:42:47;;;;;;;50.50;24.80;;;;;;;0.08;68.51;101098.79;217565;1259;139288;-69
2023/02/27 18:47:53;;;;;;;56.00;27.60;;;;;;;0.04;68.48;101104.09;219177;1257;141147;-65
2023/02/27 18:53:01;;;;;;;50.40;24.80;;;;;;;-0.01;68.95;101104.31;217891;1259;139663;-62
2023/02/27 18:58:09;;;;;;;57.70;31.80;;;;;;;-0.09;68.78;101103.60;218987;1257;139798;-66
2023/02/27 19:03:18;;;;;;;61.40;30.20;;;;;;;-0.15;69.18;101105.92;217901;1260;139748;-67
2023/02/27 19:08:27;;;;;;;57.00;31.30;;;;;;;-0.30;68.96;101104.92;219154;1257;140003;-66
2023/02/27 19:13:31;;;;;;;41.30;24.00;;;;;;;-0.34;68.99;101108.96;219684;1257;140649;-63
2023/02/27 19:18:34;;;;;;;50.00;27.70;;;;;;;-0.26;69.40;101105.64;220227;1257;142254;-65
2023/02/27 19:23:38;;;;;;;40.40;22.90;;;;;;;-0.20;69.77;101110.89;220205;1256;140993;-65
2023/02/27 19:28:42;;;;;;;40.50;24.80;;;;;;;-0.20;70.12;101112.60;220308;1260;140810;-68
2023/02/27 19:33:47;;;;;;;20.50;13.80;;;;;;;-0.21;70.08;101123.05;217745;1260;141243;-65
2023/02/27 19:38:55;;;;;;;26.40;16.20;;;;;;;-0.23;70.40;101126.85;218662;1260;139813;-73
2023/02/27 19:44:00;;;;;;;21.70;13.50;;;;;;;-0.23;70.67;101129.63;217337;1260;140503;-65
2023/02/27 19:49:05;;;;;;;31.20;16.70;;;;;;;-0.25;70.80;101135.25;218410;1260;139544;-68
2023/02/27 19:54:14;;;;;;;23.00;15.80;;;;;;;-0.22;70.84;101135.33;217445;1261;139760;-69
2023/02/27 19:59:20;;;;;;;25.90;16.40;;;;;;;-0.21;70.83;101137.20;218175;1257;141744;-68
2023/02/27 20:04:24;;;;;;;44.30;23.40;;;;;;;-0.19;70.77;101143.44;218192;1260;140468;-64
2023/02/27 20:09:28;;;;;;;45.30;19.90;;;;;;;-0.16;70.62;101145.09;218820;1260;139897;-65
2023/02/27 20:14:31;;;;;;;43.10;25.10;;;;;;;-0.15;70.85;101149.06;218972;1258;139856;-65
2023/02/27 20:19:35;;;;;;;51.40;19.40;;;;;;;-0.18;70.47;101155.31;218439;1260;139730;-65
2023/02/27 20:24:39;;;;;;;54.50;21.30;;;;;;;-0.25;69.86;101155.49;217962;1257;140557;-64
2023/02/27 20:29:47;;;;;;;31.00;15.30;;;;;;;-0.30;69.77;101158.23;217494;1257;139871;-65
2023/02/27 20:34:50;;;;;;;41.40;14.50;;;;;;;-0.36;69.32;101157.49;218454;1257;139374;-64
2023/02/27 20:39:59;;;;;;;36.60;15.40;;;;;;;-0.41;69.26;101156.91;218585;1256;140236;-64
2023/02/27 20:45:04;;;;;;;63.70;23.40;;;;;;;-0.43;69.04;101167.98;218740;1256;140803;-65
2023/02/27 20:50:08;;;;;;;32.70;14.60;;;;;;;-0.42;69.17;101169.31;217578;1257;140225;-64
2023/02/27 20:55:12;;;;;;;16.40;9.40;;;;;;;-0.44;68.86;101172.52;218561;1258;140093;-65
2023/02/27 21:00:17;;;;;;;27.10;12.40;;;;;;;-0.46;69.07;101174.39;218664;1257;140345;-64
2023/02/27 21:05:20;;;;;;;24.50;13.50;;;;;;;-0.52;69.30;101181.77;219494;1257;140324;-66
2023/02/27 21:10:23;;;;;;;20.20;12.40;;;;;;;-0.61;68.98;101185.42;219378;1257;140692;-65
2023/02/27 21:15:26;;;;;;;25.20;11.70;;;;;;;-0.70;69.09;101184.65;219682;1257;140106;-70
2023/02/27 21:20:30;;;;;;;29.30;14.10;;;;;;;-0.80;68.79;101187.04;220453;1256;140274;-70
2023/02/27 21:25:38;;;;;;;26.10;15.10;;;;;;;-0.96;68.93;101184.67;220194;1256;140086;-64
2023/02/27 21:30:42;;;;;;;31.40;17.50;;;;;;;-1.11;68.69;101186.95;220435;1256;140095;-67
2023/02/27 21:35:47;;;;;;;28.90;15.70;;;;;;;-1.17;68.60;101190.72;219807;1256;140903;-67
2023/02/27 21:40:50;;;;;;;33.80;17.00;;;;;;;-1.19;68.39;101196.31;217757;1256;140029;-68
2023/02/27 21:45:54;;;;;;;41.00;17.30;;;;;;;-1.26;68.79;101200.23;218338;1260;141112;-62
2023/02/27 21:50:59;;;;;;;36.00;18.80;;;;;;;-1.36;69.05;101197.54;218399;1257;140365;-67
2023/02/27 21:56:07;;;;;;;37.80;19.00;;;;;;;-1.41;69.11;101202.94;218557;1257;141229;-66
2023/02/27 22:01:16;;;;;;;42.20;18.20;;;;;;;-1.44;69.70;101206.52;217432;1256;139435;-62
2023/02/27 22:06:20;;;;;;;38.20;16.90;;;;;;;-1.50;69.87;101208.89;218489;1257;139464;-64
2023/02/27 22:11:25;;;;;;;50.50;21.90;;;;;;;-1.55;69.83;101214.39;218781;1257;140896;-63
2023/02/27 22:16:28;;;;;;;38.80;16.30;;;;;;;-1.56;69.76;101215.87;217549;1256;140265;-62
2023/02/27 22:21:34;;;;;;;52.30;18.60;;;;;;;-1.51;69.78;101218.95;217826;1260;139864;-63
2023/02/27 22:26:38;;;;;;;40.10;17.60;;;;;;;-1.42;69.69;101216.25;217569;1257;143437;-61
2023/02/27 22:31:42;;;;;;;37.20;17.60;;;;;;;-1.37;69.50;101223.05;218627;1256;140111;-64
2023/02/27 22:36:48;;;;;;;36.70;15.80;;;;;;;-1.36;69.50;101222.77;217601;1260;139859;-66
2023/02/27 22:41:51;;;;;;;31.60;13.60;;;;;;;-1.38;69.39;101225.43;217826;1257;139632;-66
2023/02/27 22:46:56;;;;;;;28.90;12.10;;;;;;;-1.43;69.37;101229.42;218525;1257;234640;-67
2023/02/27 22:52:00;;;;;;;22.80;11.00;;;;;;;-1.46;69.32;101230.04;218854;1256;139485;-67
2023/02/27 22:57:04;;;;;;;29.70;12.30;;;;;;;-1.53;69.52;101236.00;218450;1257;139694;-66
2023/02/27 23:02:07;;;;;;;19.50;9.80;;;;;;;-1.61;69.54;101241.54;218663;1256;140798;-62
2023/02/27 23:07:11;;;;;;;19.30;11.30;;;;;;;-1.65;69.82;101247.28;218880;1257;140227;-64
2023/02/27 23:12:13;;;;;;;22.30;11.80;;;;;;;-1.67;69.68;101251.41;219282;1256;141019;-65
2023/02/27 23:17:16;;;;;;;26.70;12.60;;;;;;;-1.62;69.29;101256.81;220404;1256;140365;-62
2023/02/27 23:22:18;;;;;;;25.10;14.10;;;;;;;-1.53;69.33;101264.11;220019;1256;140688;-64
2023/02/27 23:27:21;;;;;;;28.30;15.60;;;;;;;-1.47;68.97;101260.98;219331;1256;140388;-65